createdAt,value
2022-11-23T00:00:39.627Z,1.03
2022-11-23T00:03:07.511Z,0.50
2022-11-23T00:05:35.712Z,0.40
2022-11-23T00:08:03.607Z,0.50
2022-11-23T00:10:32.898Z,1.33
2022-11-23T00:13:00.760Z,0.83
2022-11-23T00:15:28.627Z,0.80
2022-11-23T00:17:56.499Z,0.40
2022-11-23T00:20:24.354Z,0.37
2022-11-23T00:22:52.277Z,1.73
2022-11-23T00:25:20.150Z,0.60
2022-11-23T00:27:49.382Z,1.03
2022-11-23T00:30:17.756Z,0.87
2022-11-23T00:32:45.617Z,0.60
2022-11-23T00:35:13.521Z,0.77
2022-11-23T00:37:41.387Z,0.40
2022-11-23T00:40:10.815Z,0.40
2022-11-23T00:42:38.665Z,0.40
2022-11-23T00:45:09.188Z,0.50
2022-11-23T00:47:37.021Z,0.23
2022-11-23T00:50:05.299Z,0.70
2022-11-23T00:52:33.171Z,0.30
2022-11-23T00:55:01.035Z,0.60
2022-11-23T00:57:28.883Z,1.03
2022-11-23T00:59:56.790Z,0.57
2022-11-23T01:02:26.112Z,1.43
2022-11-23T01:04:54.097Z,0.37
2022-11-23T01:07:22.054Z,1.17
2022-11-23T01:09:50.030Z,0.90
2022-11-23T01:12:17.928Z,0.60
2022-11-23T01:14:45.859Z,0.80
2022-11-23T01:17:13.817Z,0.80
2022-11-23T01:19:43.125Z,0.40
2022-11-23T01:22:11.053Z,0.93
2022-11-23T01:24:38.996Z,0.73
2022-11-23T01:27:06.903Z,0.20
2022-11-23T01:29:35.061Z,1.13
2022-11-23T01:32:03.288Z,0.20
2022-11-23T01:34:31.207Z,0.30
2022-11-23T01:37:00.813Z,0.10
2022-11-23T01:39:28.812Z,0.10
2022-11-23T01:41:56.855Z,0.40
2022-11-23T01:44:30.574Z,0.90
2022-11-23T01:47:00.604Z,0.10
2022-11-23T01:49:32.067Z,0.17
2022-11-23T01:52:05.188Z,0.60
2022-11-23T01:54:38.017Z,0.20
2022-11-23T01:57:09.236Z,0.30
2022-11-23T01:59:37.751Z,0.50
2022-11-23T02:02:06.443Z,0.10
2022-11-23T02:04:38.302Z,0.40
2022-11-23T02:07:08.363Z,0.43
2022-11-23T02:09:37.458Z,0.40
2022-11-23T02:12:11.665Z,0.87
2022-11-23T02:17:07.737Z,0.20
2022-11-23T02:19:47.699Z,0.20
2022-11-23T02:22:25.277Z,1.17
2022-11-23T02:24:56.369Z,0.27
2022-11-23T02:27:26.296Z,1.20
2022-11-23T02:29:56.976Z,0.63
2022-11-23T02:32:26.116Z,0.53
2022-11-23T02:34:54.080Z,1.23
2022-11-23T02:37:22.283Z,0.73
2022-11-23T02:39:52.328Z,0.50
2022-11-23T02:42:20.554Z,0.50
2022-11-23T02:44:57.748Z,0.40
2022-11-23T02:47:25.845Z,0.10
2022-11-23T02:49:53.841Z,1.17
2022-11-23T02:52:21.798Z,0.77
2022-11-23T02:54:49.772Z,0.50
2022-11-23T02:57:17.852Z,0.33
2022-11-23T02:59:45.760Z,0.40
2022-11-23T03:02:15.081Z,0.57
2022-11-23T03:04:43.011Z,0.40
2022-11-23T03:07:11.011Z,1.27
2022-11-23T03:09:39.006Z,0.20
2022-11-23T03:12:07.419Z,0.20
2022-11-23T03:14:35.367Z,0.30
2022-11-23T03:17:03.279Z,0.50
2022-11-23T03:19:32.955Z,0.20
2022-11-23T03:22:01.055Z,0.10
2022-11-23T03:24:28.987Z,0.10
2022-11-23T03:26:57.020Z,0.30
2022-11-23T03:29:26.611Z,0.30
2022-11-23T03:31:54.688Z,0.50
2022-11-23T03:34:22.633Z,0.50
2022-11-23T03:36:52.024Z,0.10
2022-11-23T03:39:19.956Z,0.80
2022-11-23T03:41:47.919Z,0.93
2022-11-23T03:44:15.823Z,0.50
2022-11-23T03:46:43.732Z,0.90
2022-11-23T03:49:11.914Z,0.50
2022-11-23T03:51:39.837Z,0.40
2022-11-23T03:54:09.472Z,0.37
2022-11-23T03:56:37.451Z,0.20
2022-11-23T03:59:05.392Z,0.63
2022-11-23T04:01:33.348Z,0.37
2022-11-23T04:04:01.273Z,0.60
2022-11-23T04:06:29.218Z,0.57
2022-11-23T04:09:01.734Z,0.10
2022-11-23T04:11:31.692Z,0.20
2022-11-23T04:13:59.641Z,0.67
2022-11-23T04:16:27.559Z,0.93
2022-11-23T04:18:55.521Z,0.50
2022-11-23T04:21:23.447Z,0.23
2022-11-23T04:23:51.402Z,0.27
2022-11-23T04:26:19.300Z,0.77
2022-11-23T04:28:48.580Z,0.50
2022-11-23T04:31:16.492Z,0.10
2022-11-23T04:33:44.405Z,0.73
2022-11-23T04:36:12.534Z,0.83
2022-11-23T04:38:40.473Z,0.47
2022-11-23T04:41:08.407Z,0.47
2022-11-23T04:43:36.340Z,0.40
2022-11-23T04:46:05.910Z,0.30
2022-11-23T04:48:33.830Z,1.50
2022-11-23T04:51:01.799Z,0.47
2022-11-23T04:53:29.730Z,0.53
2022-11-23T04:55:57.739Z,0.30
2022-11-23T04:58:26.903Z,0.63
2022-11-23T05:00:58.348Z,0.57
2022-11-23T05:03:28.317Z,0.33
2022-11-23T05:05:59.191Z,0.60
2022-11-23T05:08:27.165Z,0.40
2022-11-23T05:10:55.155Z,0.50
2022-11-23T05:13:23.125Z,0.97
2022-11-23T05:15:51.256Z,0.20
2022-11-23T05:18:19.172Z,0.40
2022-11-23T05:20:48.556Z,0.77
2022-11-23T05:23:16.648Z,0.43
2022-11-23T05:25:44.673Z,0.93
2022-11-23T05:28:39.125Z,0.80
2022-11-23T05:31:05.692Z,0.33
2022-11-23T05:33:33.768Z,0.60
2022-11-23T05:36:03.071Z,0.27
2022-11-23T05:38:31.003Z,0.63
2022-11-23T05:40:58.953Z,0.40
2022-11-23T05:43:27.021Z,0.53
2022-11-23T05:45:54.946Z,1.80
2022-11-23T05:48:22.868Z,0.77
2022-11-23T05:50:51.733Z,0.33
2022-11-23T05:53:21.173Z,1.00
2022-11-23T05:55:49.103Z,1.70
2022-11-23T05:58:17.036Z,0.40
2022-11-23T06:00:44.949Z,1.23
2022-11-23T06:03:12.955Z,1.30
2022-11-23T06:05:40.888Z,0.63
2022-11-23T06:08:08.872Z,1.73
2022-11-23T06:10:38.160Z,0.50
2022-11-23T06:13:06.122Z,1.10
2022-11-23T06:15:34.041Z,0.77
2022-11-23T06:18:02.498Z,0.63
2022-11-23T06:20:30.751Z,0.83
2022-11-23T06:22:58.672Z,0.80
2022-11-23T06:25:26.595Z,0.57
2022-11-23T06:28:00.160Z,1.97
2022-11-23T06:30:29.884Z,0.88
2022-11-23T06:32:58.318Z,1.00
2022-11-23T06:35:26.280Z,0.40
2022-11-23T06:37:54.913Z,1.27
2022-11-23T06:40:23.054Z,0.77
2022-11-23T06:42:51.080Z,1.00
2022-11-23T06:45:21.479Z,0.77
2022-11-23T06:47:49.363Z,0.53
2022-11-23T06:50:17.585Z,0.83
2022-11-23T06:52:45.505Z,1.00
2022-11-23T06:55:13.428Z,0.90
2022-11-23T06:57:41.468Z,2.07
2022-11-23T07:00:11.681Z,1.03
2022-11-23T07:02:41.002Z,1.10
2022-11-23T07:05:09.712Z,1.27
2022-11-23T07:07:37.794Z,1.43
2022-11-23T07:10:07.572Z,0.90
2022-11-23T07:12:35.652Z,1.70
2022-11-23T07:15:03.631Z,0.80
2022-11-23T07:17:31.540Z,0.93
2022-11-23T07:20:01.142Z,1.87
2022-11-23T07:22:29.126Z,3.73
2022-11-23T07:24:57.033Z,2.40
2022-11-23T07:27:24.962Z,1.50
2022-11-23T07:29:52.928Z,0.50
2022-11-23T07:32:20.868Z,1.73
2022-11-23T07:34:48.863Z,0.80
2022-11-23T07:37:18.149Z,0.70
2022-11-23T07:40:01.799Z,1.80
2022-11-23T07:42:34.624Z,1.23
2022-11-23T07:45:04.562Z,1.42
2022-11-23T07:47:32.885Z,1.27
2022-11-23T07:50:00.820Z,1.47
2022-11-23T07:52:30.127Z,2.40
2022-11-23T07:54:58.100Z,1.23
2022-11-23T07:57:26.028Z,1.47
2022-11-23T07:59:53.975Z,0.77
2022-11-23T08:02:22.334Z,0.70
2022-11-23T08:04:50.327Z,0.90
2022-11-23T08:07:18.297Z,0.93
2022-11-23T08:09:47.640Z,1.20
2022-11-23T08:12:15.566Z,0.73
2022-11-23T08:14:43.804Z,0.57
2022-11-23T08:17:11.740Z,2.27
2022-11-23T08:19:39.785Z,1.43
2022-11-23T08:22:07.831Z,2.50
2022-11-23T08:24:35.808Z,1.33
2022-11-23T08:27:05.194Z,1.53
2022-11-23T08:29:33.129Z,1.50
2022-11-23T08:32:01.067Z,1.10
2022-11-23T08:34:29.432Z,1.70
2022-11-23T08:36:58.261Z,2.50
2022-11-23T08:39:26.225Z,1.70
2022-11-23T08:41:54.277Z,1.60
2022-11-23T08:44:23.560Z,3.07
2022-11-23T08:46:51.669Z,2.50
2022-11-23T08:49:19.677Z,2.20
2022-11-23T08:51:50.234Z,1.37
2022-11-23T08:54:18.463Z,0.70
2022-11-23T08:56:46.409Z,1.40
2022-11-23T08:59:14.420Z,0.67
2022-11-23T09:01:43.794Z,1.70
2022-11-23T09:04:16.379Z,0.70
2022-11-23T09:06:47.171Z,1.30
2022-11-23T09:09:15.099Z,0.93
2022-11-23T09:11:43.021Z,0.97
2022-11-23T09:14:11.033Z,0.97
2022-11-23T09:16:38.964Z,1.03
2022-11-23T09:19:08.383Z,1.23
2022-11-23T09:21:39.233Z,1.87
2022-11-23T09:24:07.643Z,1.07
2022-11-23T09:26:37.669Z,0.77
2022-11-23T09:29:05.820Z,0.80
2022-11-23T09:31:33.885Z,0.63
2022-11-23T09:34:01.831Z,1.17
2022-11-23T09:36:31.420Z,2.27
2022-11-23T09:38:59.420Z,1.07
2022-11-23T09:42:03.401Z,0.70
2022-11-23T09:44:40.217Z,1.23
2022-11-23T09:47:29.818Z,1.10
2022-11-23T09:50:04.481Z,1.17
2022-11-23T09:52:35.065Z,0.90
2022-11-23T09:55:12.369Z,0.20
2022-11-23T09:57:44.597Z,1.43
2022-11-23T10:00:20.434Z,1.53
2022-11-23T10:02:48.889Z,1.27
2022-11-23T10:05:19.761Z,0.53
2022-11-23T10:08:03.470Z,0.70
2022-11-23T10:10:41.984Z,0.98
2022-11-23T10:13:29.033Z,0.73
2022-11-23T10:16:11.281Z,0.70
2022-11-23T10:18:49.989Z,0.93
2022-11-23T10:21:25.105Z,0.30
2022-11-23T10:24:05.723Z,1.37
2022-11-23T10:26:37.866Z,0.90
2022-11-23T10:29:14.293Z,0.63
2022-11-23T10:31:46.950Z,0.50
2022-11-23T10:34:18.353Z,1.63
2022-11-23T10:36:46.479Z,0.90
2022-11-23T10:39:25.016Z,1.23
2022-11-23T10:41:54.177Z,0.97
2022-11-23T10:44:31.961Z,1.13
2022-11-23T10:47:00.887Z,0.50
2022-11-23T10:49:30.377Z,2.17
2022-11-23T10:52:00.659Z,1.00
2022-11-23T10:54:36.483Z,1.30
2022-11-23T10:57:22.918Z,0.80
2022-11-23T11:00:00.203Z,1.43
2022-11-23T11:02:29.241Z,0.70
2022-11-23T11:05:16.542Z,1.33
2022-11-23T11:07:44.629Z,1.23
2022-11-23T11:10:39.582Z,0.80
2022-11-23T11:13:23.449Z,1.03
2022-11-23T11:15:56.211Z,1.75
2022-11-23T11:18:28.863Z,1.80
2022-11-23T11:21:00.392Z,1.33
2022-11-23T11:23:30.905Z,0.83
2022-11-23T11:26:09.532Z,1.00
2022-11-23T11:28:41.897Z,1.40
2022-11-23T11:31:31.426Z,0.77
2022-11-23T11:34:05.786Z,0.50
2022-11-23T11:36:40.476Z,0.73
2022-11-23T11:39:19.324Z,0.53
2022-11-23T11:41:52.648Z,1.30
2022-11-23T11:44:23.774Z,1.50
2022-11-23T11:46:59.113Z,1.77
2022-11-23T11:49:32.548Z,1.67
2022-11-23T11:52:06.171Z,1.85
2022-11-23T11:54:41.082Z,1.27
2022-11-23T11:57:19.280Z,1.47
2022-11-23T11:59:50.368Z,1.63
2022-11-23T12:02:25.384Z,0.63
2022-11-23T12:05:05.115Z,0.90
2022-11-23T12:07:36.238Z,1.20
2022-11-23T12:10:10.889Z,0.60
2022-11-23T12:12:41.048Z,0.53
2022-11-23T12:15:47.169Z,0.80
2022-11-23T12:18:48.677Z,1.40
2022-11-23T12:21:35.569Z,1.40
2022-11-23T12:24:11.746Z,1.63
2022-11-23T12:26:52.055Z,1.00
2022-11-23T12:29:46.930Z,1.10
2022-11-23T12:32:26.218Z,0.97
2022-11-23T12:35:13.657Z,1.50
2022-11-23T12:37:54.223Z,1.43
2022-11-23T12:40:41.618Z,1.23
2022-11-23T12:43:15.052Z,1.30
2022-11-23T12:46:08.254Z,1.27
2022-11-23T12:48:47.293Z,1.23
2022-11-23T12:51:25.554Z,1.47
2022-11-23T12:54:08.657Z,1.83
2022-11-23T12:56:55.832Z,1.57
2022-11-23T12:59:26.104Z,1.50
2022-11-23T13:02:01.280Z,2.23
2022-11-23T13:04:58.211Z,2.07
2022-11-23T13:07:50.093Z,1.47
2022-11-23T13:10:38.379Z,1.37
2022-11-23T13:13:38.203Z,1.73
2022-11-23T13:16:38.393Z,2.13
2022-11-23T13:19:32.031Z,1.90
2022-11-23T13:22:01.067Z,1.73
2022-11-23T13:24:31.549Z,2.87
2022-11-23T13:27:32.326Z,2.87
2022-11-23T13:30:08.450Z,2.50
2022-11-23T13:32:47.590Z,2.27
2022-11-23T13:35:52.078Z,1.80
2022-11-23T13:38:26.526Z,2.15
2022-11-23T13:40:55.064Z,1.40
2022-11-23T13:43:26.424Z,1.53
2022-11-23T13:46:24.142Z,2.80
2022-11-23T13:48:57.822Z,2.27
2022-11-23T13:51:30.394Z,2.10
2022-11-23T13:54:03.544Z,2.57
2022-11-23T13:56:34.833Z,3.00
2022-11-23T13:59:29.050Z,2.73
2022-11-23T14:02:28.377Z,1.55
2022-11-23T14:05:29.440Z,1.70
2022-11-23T14:08:02.847Z,2.03
2022-11-23T14:10:32.722Z,0.82
2022-11-23T14:13:06.252Z,1.87
2022-11-23T14:15:36.805Z,1.10
2022-11-23T14:18:31.469Z,1.70
2022-11-23T14:24:02.220Z,2.50
2022-11-23T14:26:39.363Z,3.10
2022-11-23T14:29:30.979Z,2.40
2022-11-23T14:32:22.898Z,2.70
2022-11-23T14:34:59.549Z,2.57
2022-11-23T14:37:37.736Z,1.37
2022-11-23T14:40:18.747Z,1.90
2022-11-23T14:42:53.697Z,2.23
2022-11-23T14:45:24.396Z,2.50
2022-11-23T14:47:52.381Z,2.37
2022-11-23T14:50:26.444Z,2.97
2022-11-23T14:55:26.726Z,1.80
2022-11-23T14:57:58.896Z,2.30
2022-11-23T15:00:33.375Z,2.07
2022-11-23T15:03:34.416Z,3.33
2022-11-23T15:06:05.886Z,2.00
2022-11-23T15:08:41.955Z,1.97
2022-11-23T15:11:15.414Z,2.50
2022-11-23T15:13:45.809Z,2.28
2022-11-23T15:16:15.882Z,2.47
2022-11-23T15:18:44.864Z,3.50
2022-11-23T15:21:26.622Z,2.87
2022-11-23T15:23:58.029Z,2.47
2022-11-23T15:26:47.435Z,3.20
2022-11-23T15:29:52.384Z,2.00
2022-11-23T15:32:35.304Z,2.75
2022-11-23T15:35:08.103Z,3.47
2022-11-23T15:37:44.021Z,3.47
2022-11-23T15:40:14.962Z,1.63
2022-11-23T15:42:45.495Z,2.40
2022-11-23T15:45:36.402Z,2.33
2022-11-23T15:48:06.353Z,2.20
2022-11-23T15:50:34.545Z,2.53
2022-11-23T15:53:03.292Z,2.07
2022-11-23T15:55:31.836Z,3.30
2022-11-23T15:58:07.706Z,2.23
2022-11-23T16:00:35.959Z,2.80
2022-11-23T16:03:29.799Z,2.73
2022-11-23T16:06:17.073Z,2.22
2022-11-23T16:08:45.211Z,3.73
2022-11-23T16:11:28.870Z,2.67
2022-11-23T16:17:02.852Z,2.33
2022-11-23T16:19:33.814Z,2.50
2022-11-23T16:22:06.036Z,2.57
2022-11-23T16:24:37.283Z,2.23
2022-11-23T16:27:14.245Z,2.33
2022-11-23T16:29:43.234Z,1.90
2022-11-23T16:32:26.054Z,1.77
2022-11-23T16:34:54.392Z,1.50
2022-11-23T16:37:23.129Z,2.53
2022-11-23T16:39:51.314Z,3.23
2022-11-23T16:42:19.901Z,1.57
2022-11-23T16:44:47.973Z,2.83
2022-11-23T16:47:25.900Z,2.03
2022-11-23T16:49:54.779Z,2.03
2022-11-23T16:52:24.010Z,1.87
2022-11-23T16:54:52.913Z,1.77
2022-11-23T16:57:30.268Z,2.53
2022-11-23T16:59:59.706Z,2.50
2022-11-23T17:02:29.347Z,3.17
2022-11-23T17:04:57.919Z,2.37
2022-11-23T17:07:26.112Z,1.67
2022-11-23T17:09:54.218Z,3.20
2022-11-23T17:12:22.397Z,3.10
2022-11-23T17:14:51.636Z,1.67
2022-11-23T17:17:22.423Z,3.40
2022-11-23T17:19:52.289Z,2.43
2022-11-23T17:22:21.497Z,1.37
2022-11-23T17:24:51.637Z,2.77
2022-11-23T17:27:23.202Z,2.03
2022-11-23T17:29:57.179Z,2.60
2022-11-23T17:32:25.337Z,2.67
2022-11-23T17:34:55.072Z,2.93
2022-11-23T17:37:25.324Z,2.37
2022-11-23T17:39:53.449Z,3.43
2022-11-23T17:42:22.072Z,3.07
2022-11-23T17:44:50.348Z,2.83
2022-11-23T17:47:24.079Z,3.27
2022-11-23T17:49:52.228Z,2.97
2022-11-23T17:52:21.811Z,3.33
2022-11-23T17:54:49.982Z,3.10
2022-11-23T17:57:20.280Z,4.20
2022-11-23T17:59:48.426Z,2.80
2022-11-23T18:02:16.843Z,3.13
2022-11-23T18:04:45.408Z,2.60
2022-11-23T18:07:15.410Z,2.47
2022-11-23T18:09:45.030Z,2.97
2022-11-23T18:12:13.316Z,3.10
2022-11-23T18:14:41.684Z,2.53
2022-11-23T18:17:09.832Z,3.80
2022-11-23T18:19:37.964Z,2.50
2022-11-23T18:22:06.404Z,2.17
2022-11-23T18:24:34.682Z,3.17
2022-11-23T18:27:04.612Z,2.97
2022-11-23T18:29:33.208Z,2.73
2022-11-23T18:32:02.353Z,2.33
2022-11-23T18:34:30.578Z,3.63
2022-11-23T18:36:59.128Z,2.47
2022-11-23T18:39:27.197Z,3.23
2022-11-23T18:41:58.871Z,2.50
2022-11-23T18:44:31.213Z,4.50
2022-11-23T18:46:59.653Z,2.07
2022-11-23T18:49:28.043Z,3.03
2022-11-23T18:51:56.503Z,2.27
2022-11-23T18:54:24.673Z,2.93
2022-11-23T18:56:53.415Z,2.60
2022-11-23T19:02:13.827Z,2.00
2022-11-23T19:04:42.024Z,4.10
2022-11-23T19:07:10.628Z,2.03
2022-11-23T19:09:39.241Z,3.80
2022-11-23T19:12:09.029Z,1.87
2022-11-23T19:14:37.470Z,3.10
2022-11-23T19:17:05.605Z,3.00
2022-11-23T19:19:35.825Z,2.73
2022-11-23T19:22:04.161Z,3.87
2022-11-23T19:24:32.478Z,3.10
2022-11-23T19:27:00.872Z,2.43
2022-11-23T19:29:29.529Z,3.30
2022-11-23T19:31:57.990Z,4.10
2022-11-23T19:34:25.990Z,2.77
2022-11-23T19:36:55.669Z,2.73
2022-11-23T19:39:24.333Z,1.73
2022-11-23T19:41:52.658Z,2.13
2022-11-23T19:44:20.845Z,2.67
2022-11-23T19:46:49.075Z,2.83
2022-11-23T19:49:17.778Z,2.17
2022-11-23T19:51:47.718Z,2.77
2022-11-23T19:54:18.032Z,2.30
2022-11-23T19:56:46.213Z,3.17
2022-11-23T19:59:14.670Z,3.27
2022-11-23T20:01:42.843Z,2.10
2022-11-23T20:04:12.119Z,3.00
2022-11-23T20:06:42.730Z,1.90
2022-11-23T20:09:12.825Z,1.83
2022-11-23T20:11:46.852Z,2.23
2022-11-23T20:14:18.370Z,2.77
2022-11-23T20:16:47.753Z,1.43
2022-11-23T20:19:15.959Z,2.20
2022-11-23T20:21:44.153Z,3.23
2022-11-23T20:24:14.364Z,2.90
2022-11-23T20:26:44.553Z,2.10
2022-11-23T20:29:14.068Z,2.00
2022-11-23T20:31:42.660Z,1.70
2022-11-23T20:34:16.694Z,2.97
2022-11-23T20:36:48.063Z,2.10
2022-11-23T20:39:16.594Z,3.67
2022-11-23T20:41:49.453Z,3.60
2022-11-23T20:44:17.625Z,3.87
2022-11-23T20:47:01.240Z,3.23
2022-11-23T20:49:31.577Z,3.30
2022-11-23T20:51:59.888Z,2.40
2022-11-23T20:54:28.187Z,3.73
2022-11-23T20:57:00.386Z,1.73
2022-11-23T20:59:28.736Z,3.27
2022-11-23T21:01:56.886Z,2.53
2022-11-23T21:04:25.218Z,2.90
2022-11-23T21:06:53.480Z,3.07
2022-11-23T21:09:21.546Z,3.67
2022-11-23T21:12:07.023Z,2.60
2022-11-23T21:14:37.124Z,2.47
2022-11-23T21:17:06.510Z,2.57
2022-11-23T21:19:36.329Z,2.87
2022-11-23T21:22:06.423Z,3.27
2022-11-23T21:24:35.561Z,3.30
2022-11-23T21:27:04.678Z,5.00
2022-11-23T21:29:33.610Z,4.70
2022-11-23T21:32:03.255Z,2.60
2022-11-23T21:34:32.611Z,1.73
2022-11-23T21:37:01.272Z,1.63
2022-11-23T21:39:31.236Z,1.63
2022-11-23T21:41:59.836Z,2.93
2022-11-23T21:44:28.028Z,3.10
2022-11-23T21:46:56.260Z,2.67
2022-11-23T21:49:27.926Z,1.23
2022-11-23T21:51:56.046Z,2.00
2022-11-23T21:54:24.739Z,2.63
2022-11-23T21:56:52.815Z,2.83
2022-11-23T21:59:20.915Z,3.23
2022-11-23T22:01:49.249Z,2.43
2022-11-23T22:04:17.410Z,2.83
2022-11-23T22:06:46.974Z,2.90
2022-11-23T22:09:15.088Z,3.50
2022-11-23T22:11:44.422Z,3.80
2022-11-23T22:14:14.059Z,1.03
2022-11-23T22:16:43.875Z,3.00
2022-11-23T22:19:13.176Z,2.53
2022-11-23T22:21:43.365Z,2.87
2022-11-23T22:24:15.307Z,3.50
2022-11-23T22:26:43.781Z,1.77
2022-11-23T22:29:11.947Z,2.43
2022-11-23T22:31:40.436Z,2.43
2022-11-23T22:34:11.464Z,2.50
2022-11-23T22:36:39.763Z,2.13
2022-11-23T22:39:09.144Z,2.67
2022-11-23T22:41:39.103Z,1.80
2022-11-23T22:44:08.592Z,1.83
2022-11-23T22:46:39.071Z,2.23
2022-11-23T22:49:07.875Z,2.20
2022-11-23T22:51:36.570Z,2.83
2022-11-23T22:54:05.180Z,1.83
2022-11-23T22:56:33.602Z,2.60
2022-11-23T22:59:03.497Z,2.27
2022-11-23T23:01:32.416Z,2.33
2022-11-23T23:04:03.013Z,2.53
2022-11-23T23:06:34.941Z,2.10
2022-11-23T23:09:05.750Z,1.40
2022-11-23T23:11:35.485Z,1.53
2022-11-23T23:14:05.344Z,2.33
2022-11-23T23:16:33.854Z,2.57
2022-11-23T23:19:03.661Z,2.20
2022-11-23T23:21:31.956Z,2.57
2022-11-23T23:24:02.306Z,2.40
2022-11-23T23:26:30.965Z,2.73
2022-11-23T23:29:01.021Z,2.83
2022-11-23T23:31:31.183Z,2.17
2022-11-23T23:34:00.692Z,2.20
2022-11-23T23:36:29.737Z,2.03
2022-11-23T23:38:58.526Z,1.90
2022-11-23T23:41:26.642Z,2.73
2022-11-23T23:43:54.833Z,1.77
2022-11-23T23:46:23.115Z,2.50
2022-11-23T23:48:53.145Z,3.60
2022-11-23T23:51:23.142Z,2.13
2022-11-23T23:53:52.209Z,1.93
2022-11-23T23:56:22.429Z,1.73
2022-11-23T23:58:51.222Z,4.27
